RYR143M LEPA-LEMG
Flight info
| Callsign | RYR143M |
|---|---|
| Flight time | 1h 13m |
| Altitude | 37000 |
| Route | BAVER M603 ALT N851 UNTOS/N0449F360 N865 VIBAS |
| Aircraft | A320/M-SDE3FGHIRWY/LB1 |
Departure
| Time | 2026-05-07 18:08 |
|---|---|
| Airport | Palma de Mallorca Airport (LEPA) |
Arrival
| Time | 2026-05-07 19:21 |
|---|---|
| Airport | Málaga-Costa del Sol Airport (LEMG) |
| Time | Latitude | Longitude | Altitude | Speed | Heading |
|---|---|---|---|---|---|
| 2026-05-07 17:52 | 39.55068 | 2.73590 | 30 ft | 0 kts | 163° |
| 2026-05-07 17:56 | 39.55074 | 2.73588 | 30 ft | 4 kts | 162° |
| 2026-05-07 17:57 | 39.55098 | 2.73573 | 28 ft | 4 kts | 136° |
| 2026-05-07 17:57 | 39.55109 | 2.73557 | 30 ft | 4 kts | 98° |
| 2026-05-07 17:57 | 39.55106 | 2.73535 | 30 ft | 1 kts | 59° |
| 2026-05-07 17:59 | 39.55109 | 2.73541 | 30 ft | 4 kts | 59° |
| 2026-05-07 17:59 | 39.55139 | 2.73607 | 30 ft | 13 kts | 59° |
| 2026-05-07 17:59 | 39.55179 | 2.73718 | 30 ft | 15 kts | 92° |
| 2026-05-07 18:00 | 39.55168 | 2.73844 | 30 ft | 14 kts | 117° |
| 2026-05-07 18:00 | 39.55082 | 2.73927 | 30 ft | 17 kts | 148° |
| 2026-05-07 18:00 | 39.54972 | 2.74015 | 30 ft | 20 kts | 148° |
| 2026-05-07 18:00 | 39.54851 | 2.74110 | 30 ft | 17 kts | 148° |
| 2026-05-07 18:01 | 39.54764 | 2.74073 | 30 ft | 16 kts | 236° |
| 2026-05-07 18:01 | 39.54702 | 2.73942 | 30 ft | 18 kts | 238° |
| 2026-05-07 18:01 | 39.54631 | 2.73792 | 30 ft | 21 kts | 238° |
| 2026-05-07 18:01 | 39.54574 | 2.73686 | 30 ft | 12 kts | 214° |
| 2026-05-07 18:02 | 39.54517 | 2.73703 | 30 ft | 0 kts | 149° |
| 2026-05-07 18:02 | 39.54512 | 2.73708 | 30 ft | 3 kts | 149° |
| 2026-05-07 18:02 | 39.54477 | 2.73734 | 30 ft | 8 kts | 149° |
| 2026-05-07 18:03 | 39.54429 | 2.73781 | 30 ft | 9 kts | 116° |
| 2026-05-07 18:03 | 39.54438 | 2.73827 | 30 ft | 0 kts | 59° |
| 2026-05-07 18:07 | 39.54446 | 2.73845 | 30 ft | 12 kts | 59° |
| 2026-05-07 18:07 | 39.54608 | 2.74188 | 30 ft | 79 kts | 58° |
| 2026-05-07 18:07 | 39.55001 | 2.75018 | 30 ft | 134 kts | 58° |
| 2026-05-07 18:07 | 39.55527 | 2.76133 | 375 ft | 147 kts | 58° |
| 2026-05-07 18:08 | 39.56045 | 2.77271 | 960 ft | 147 kts | 59° |
| 2026-05-07 18:08 | 39.56552 | 2.78410 | 1630 ft | 146 kts | 59° |
| 2026-05-07 18:08 | 39.57093 | 2.79609 | 1935 ft | 166 kts | 59° |
| 2026-05-07 18:08 | 39.57716 | 2.80980 | 2292 ft | 186 kts | 60° |
| 2026-05-07 18:09 | 39.58409 | 2.82500 | 2709 ft | 203 kts | 60° |
| 2026-05-07 18:09 | 39.59139 | 2.84101 | 3442 ft | 209 kts | 60° |
| 2026-05-07 18:09 | 39.59886 | 2.85732 | 4257 ft | 212 kts | 60° |
| 2026-05-07 18:09 | 39.60646 | 2.87389 | 5071 ft | 215 kts | 60° |
| 2026-05-07 18:10 | 39.61423 | 2.89072 | 5870 ft | 220 kts | 58° |
| 2026-05-07 18:10 | 39.62520 | 2.90453 | 6633 ft | 226 kts | 28° |
| 2026-05-07 18:10 | 39.64062 | 2.90896 | 7361 ft | 235 kts | 356° |
| 2026-05-07 18:10 | 39.65605 | 2.90172 | 8083 ft | 244 kts | 323° |
| 2026-05-07 18:11 | 39.66627 | 2.88420 | 8823 ft | 249 kts | 292° |
| 2026-05-07 18:11 | 39.67044 | 2.87024 | 9332 ft | 251 kts | 289° |
| 2026-05-07 18:11 | 39.67719 | 2.84131 | 10324 ft | 255 kts | 283° |
| 2026-05-07 18:11 | 39.68105 | 2.81868 | 11065 ft | 258 kts | 279° |
| 2026-05-07 18:12 | 39.68376 | 2.79555 | 11783 ft | 261 kts | 275° |
| 2026-05-07 18:12 | 39.68525 | 2.77193 | 12530 ft | 264 kts | 272° |
| 2026-05-07 18:12 | 39.68770 | 2.74822 | 13263 ft | 268 kts | 281° |
| 2026-05-07 18:12 | 39.69316 | 2.72391 | 13544 ft | 293 kts | 291° |
| 2026-05-07 18:13 | 39.70163 | 2.69871 | 13770 ft | 316 kts | 293° |
| 2026-05-07 18:13 | 39.71027 | 2.67139 | 13916 ft | 338 kts | 284° |
| 2026-05-07 18:13 | 39.71233 | 2.64027 | 14078 ft | 356 kts | 261° |
| 2026-05-07 18:13 | 39.70461 | 2.60964 | 14527 ft | 361 kts | 241° |
| 2026-05-07 18:14 | 39.69284 | 2.58060 | 15138 ft | 365 kts | 240° |
| 2026-05-07 18:14 | 39.68078 | 2.55141 | 15742 ft | 369 kts | 239° |
| 2026-05-07 18:14 | 39.66855 | 2.52201 | 16336 ft | 372 kts | 239° |
| 2026-05-07 18:14 | 39.65617 | 2.49229 | 16947 ft | 375 kts | 239° |
| 2026-05-07 18:15 | 39.64370 | 2.46239 | 17584 ft | 378 kts | 239° |
| 2026-05-07 18:15 | 39.63114 | 2.43230 | 18202 ft | 382 kts | 239° |
| 2026-05-07 18:15 | 39.61844 | 2.40187 | 18868 ft | 383 kts | 239° |
| 2026-05-07 18:15 | 39.60579 | 2.37148 | 19579 ft | 383 kts | 239° |
| 2026-05-07 18:16 | 39.59316 | 2.34108 | 20274 ft | 383 kts | 239° |
| 2026-05-07 18:16 | 39.58054 | 2.31070 | 20948 ft | 383 kts | 239° |
| 2026-05-07 18:16 | 39.56787 | 2.28027 | 21587 ft | 384 kts | 239° |
| 2026-05-07 18:16 | 39.55517 | 2.24979 | 22200 ft | 385 kts | 239° |
| 2026-05-07 18:17 | 39.54241 | 2.21928 | 22799 ft | 386 kts | 238° |
| 2026-05-07 18:17 | 39.52954 | 2.18863 | 23359 ft | 388 kts | 238° |
| 2026-05-07 18:17 | 39.51662 | 2.15791 | 23838 ft | 390 kts | 238° |
| 2026-05-07 18:17 | 39.50362 | 2.12694 | 24270 ft | 393 kts | 238° |
| 2026-05-07 18:18 | 39.49051 | 2.09579 | 24693 ft | 395 kts | 238° |
| 2026-05-07 18:18 | 39.47733 | 2.06449 | 25106 ft | 398 kts | 238° |
| 2026-05-07 18:18 | 39.46403 | 2.03299 | 25509 ft | 400 kts | 238° |
| 2026-05-07 18:18 | 39.45065 | 2.00125 | 25902 ft | 403 kts | 239° |
| 2026-05-07 18:19 | 39.43739 | 1.96977 | 26286 ft | 405 kts | 239° |
| 2026-05-07 18:19 | 39.42386 | 1.93766 | 26670 ft | 408 kts | 239° |
| 2026-05-07 18:19 | 39.41029 | 1.90537 | 27050 ft | 410 kts | 239° |
| 2026-05-07 18:19 | 39.39661 | 1.87289 | 27425 ft | 413 kts | 239° |
| 2026-05-07 18:20 | 39.38281 | 1.84020 | 27794 ft | 415 kts | 239° |
| 2026-05-07 18:20 | 39.36887 | 1.80736 | 28163 ft | 418 kts | 239° |
| 2026-05-07 18:20 | 39.35481 | 1.77441 | 28527 ft | 420 kts | 239° |
| 2026-05-07 18:20 | 39.34065 | 1.74119 | 28887 ft | 423 kts | 239° |
| 2026-05-07 18:21 | 39.32644 | 1.70777 | 29235 ft | 426 kts | 239° |
| 2026-05-07 18:21 | 39.31217 | 1.67416 | 29597 ft | 428 kts | 239° |
| 2026-05-07 18:21 | 39.29778 | 1.64032 | 29935 ft | 431 kts | 239° |
| 2026-05-07 18:21 | 39.28329 | 1.60637 | 30233 ft | 433 kts | 239° |
| 2026-05-07 18:22 | 39.26873 | 1.57229 | 30562 ft | 434 kts | 239° |
| 2026-05-07 18:22 | 39.25910 | 1.54976 | 30860 ft | 432 kts | 239° |
| 2026-05-07 18:22 | 39.23979 | 1.50458 | 31534 ft | 428 kts | 240° |
| 2026-05-07 18:22 | 39.22545 | 1.47111 | 32056 ft | 424 kts | 240° |
| 2026-05-07 18:23 | 39.21125 | 1.43793 | 32582 ft | 421 kts | 241° |
| 2026-05-07 18:23 | 39.19717 | 1.40507 | 33123 ft | 417 kts | 241° |
| 2026-05-07 18:23 | 39.18317 | 1.37251 | 33670 ft | 413 kts | 242° |
| 2026-05-07 18:23 | 39.17206 | 1.34676 | 34072 ft | 410 kts | 242° |
| 2026-05-07 18:24 | 39.15825 | 1.31475 | 34532 ft | 407 kts | 242° |
| 2026-05-07 18:24 | 39.14454 | 1.28297 | 34947 ft | 405 kts | 242° |
| 2026-05-07 18:24 | 39.13107 | 1.25179 | 35324 ft | 403 kts | 242° |
| 2026-05-07 18:24 | 39.11748 | 1.22031 | 35679 ft | 401 kts | 242° |
| 2026-05-07 18:25 | 39.10392 | 1.18893 | 36028 ft | 400 kts | 242° |
| 2026-05-07 18:25 | 39.09039 | 1.15768 | 36360 ft | 399 kts | 242° |
| 2026-05-07 18:25 | 39.07689 | 1.12653 | 36683 ft | 398 kts | 242° |
| 2026-05-07 18:25 | 39.06338 | 1.09541 | 36891 ft | 399 kts | 242° |
| 2026-05-07 18:26 | 39.04984 | 1.06419 | 36938 ft | 401 kts | 242° |
| 2026-05-07 18:26 | 39.02261 | 1.00145 | 36944 ft | 402 kts | 243° |
| 2026-05-07 18:27 | 38.99528 | 0.93864 | 36951 ft | 403 kts | 243° |
| 2026-05-07 18:27 | 38.96780 | 0.87578 | 36953 ft | 404 kts | 243° |
| 2026-05-07 18:28 | 38.94046 | 0.81332 | 36952 ft | 404 kts | 243° |
| 2026-05-07 18:28 | 38.91292 | 0.75040 | 36952 ft | 404 kts | 243° |
| 2026-05-07 18:29 | 38.88529 | 0.68742 | 36952 ft | 405 kts | 243° |
| 2026-05-07 18:29 | 38.86312 | 0.62146 | 36955 ft | 403 kts | 250° |
| 2026-05-07 18:30 | 38.84226 | 0.55478 | 36959 ft | 403 kts | 250° |
| 2026-05-07 18:30 | 38.82095 | 0.48839 | 36967 ft | 404 kts | 246° |
| 2026-05-07 18:31 | 38.79091 | 0.42718 | 36964 ft | 406 kts | 240° |
| 2026-05-07 18:31 | 38.75968 | 0.36685 | 36966 ft | 406 kts | 240° |
| 2026-05-07 18:32 | 38.72875 | 0.30694 | 36964 ft | 406 kts | 240° |
| 2026-05-07 18:32 | 38.69757 | 0.24671 | 36966 ft | 406 kts | 240° |
| 2026-05-07 18:33 | 38.66632 | 0.18660 | 36972 ft | 406 kts | 240° |
| 2026-05-07 18:33 | 38.63498 | 0.12657 | 36972 ft | 405 kts | 241° |
| 2026-05-07 18:34 | 38.60375 | 0.06665 | 36976 ft | 404 kts | 241° |
| 2026-05-07 18:34 | 38.57257 | 0.00688 | 36977 ft | 404 kts | 241° |
| 2026-05-07 18:35 | 38.54199 | -0.05309 | 36969 ft | 399 kts | 248° |
| 2026-05-07 18:35 | 38.52155 | -0.11826 | 36976 ft | 395 kts | 252° |
| 2026-05-07 18:36 | 38.50180 | -0.18365 | 36975 ft | 394 kts | 253° |
| 2026-05-07 18:36 | 38.48208 | -0.24889 | 36982 ft | 394 kts | 253° |
| 2026-05-07 18:37 | 38.46253 | -0.31351 | 36984 ft | 393 kts | 253° |
| 2026-05-07 18:37 | 38.44283 | -0.37836 | 36990 ft | 392 kts | 253° |
| 2026-05-07 18:38 | 38.42302 | -0.44304 | 36992 ft | 391 kts | 253° |
| 2026-05-07 18:38 | 38.40325 | -0.50757 | 36996 ft | 390 kts | 253° |
| 2026-05-07 18:39 | 38.38354 | -0.57194 | 36991 ft | 389 kts | 253° |
| 2026-05-07 18:39 | 38.36386 | -0.63617 | 36987 ft | 389 kts | 253° |
| 2026-05-07 18:40 | 38.34412 | -0.70027 | 36983 ft | 389 kts | 253° |
| 2026-05-07 18:40 | 38.32431 | -0.76432 | 36974 ft | 388 kts | 253° |
| 2026-05-07 18:41 | 38.30452 | -0.82831 | 36976 ft | 388 kts | 253° |
| 2026-05-07 18:41 | 38.28475 | -0.89222 | 36978 ft | 388 kts | 253° |
| 2026-05-07 18:42 | 38.26486 | -0.95605 | 36973 ft | 388 kts | 253° |
| 2026-05-07 18:42 | 38.24499 | -1.01972 | 36973 ft | 387 kts | 253° |
| 2026-05-07 18:43 | 38.22531 | -1.08287 | 36969 ft | 386 kts | 253° |
| 2026-05-07 18:43 | 38.20549 | -1.14631 | 36973 ft | 386 kts | 252° |
| 2026-05-07 18:44 | 38.18559 | -1.20972 | 36971 ft | 386 kts | 252° |
| 2026-05-07 18:44 | 38.16566 | -1.27303 | 36974 ft | 386 kts | 252° |
| 2026-05-07 18:45 | 38.14573 | -1.33626 | 36976 ft | 385 kts | 252° |
| 2026-05-07 18:45 | 38.12583 | -1.39935 | 36977 ft | 384 kts | 252° |
| 2026-05-07 18:46 | 38.10593 | -1.46229 | 36977 ft | 384 kts | 252° |
| 2026-05-07 18:46 | 38.08602 | -1.52512 | 36981 ft | 383 kts | 252° |
| 2026-05-07 18:47 | 38.06620 | -1.58741 | 36987 ft | 383 kts | 252° |
| 2026-05-07 18:47 | 38.04625 | -1.65005 | 36995 ft | 383 kts | 252° |
| 2026-05-07 18:48 | 38.02630 | -1.71255 | 36998 ft | 382 kts | 252° |
| 2026-05-07 18:48 | 38.00630 | -1.77498 | 36997 ft | 382 kts | 252° |
| 2026-05-07 18:49 | 37.98632 | -1.83730 | 36998 ft | 382 kts | 252° |
| 2026-05-07 18:49 | 37.96632 | -1.89961 | 36997 ft | 381 kts | 252° |
| 2026-05-07 18:50 | 37.94631 | -1.96185 | 36995 ft | 381 kts | 252° |
| 2026-05-07 18:50 | 37.92627 | -2.02407 | 36993 ft | 381 kts | 252° |
| 2026-05-07 18:51 | 37.90625 | -2.08575 | 36995 ft | 381 kts | 252° |
| 2026-05-07 18:51 | 37.88609 | -2.14779 | 36993 ft | 381 kts | 252° |
| 2026-05-07 18:52 | 37.86595 | -2.20982 | 36992 ft | 381 kts | 252° |
| 2026-05-07 18:52 | 37.84576 | -2.27178 | 36990 ft | 381 kts | 252° |
| 2026-05-07 18:53 | 37.82546 | -2.33362 | 36988 ft | 381 kts | 251° |
| 2026-05-07 18:53 | 37.80524 | -2.39547 | 36987 ft | 380 kts | 252° |
| 2026-05-07 18:54 | 37.78509 | -2.45726 | 36983 ft | 380 kts | 252° |
| 2026-05-07 18:54 | 37.76484 | -2.51900 | 36980 ft | 380 kts | 251° |
| 2026-05-07 18:55 | 37.74457 | -2.58063 | 36977 ft | 380 kts | 251° |
| 2026-05-07 18:55 | 37.72423 | -2.64224 | 36708 ft | 380 kts | 251° |
| 2026-05-07 18:55 | 37.71416 | -2.67255 | 36448 ft | 379 kts | 251° |
| 2026-05-07 18:56 | 37.70397 | -2.70324 | 36188 ft | 379 kts | 251° |
| 2026-05-07 18:56 | 37.69382 | -2.73394 | 35926 ft | 379 kts | 251° |
| 2026-05-07 18:56 | 37.68367 | -2.76460 | 35677 ft | 379 kts | 251° |
| 2026-05-07 18:56 | 37.67348 | -2.79529 | 35430 ft | 379 kts | 251° |
| 2026-05-07 18:57 | 37.66327 | -2.82599 | 35180 ft | 379 kts | 251° |
| 2026-05-07 18:57 | 37.65309 | -2.85669 | 34929 ft | 380 kts | 251° |
| 2026-05-07 18:57 | 37.64289 | -2.88743 | 34683 ft | 380 kts | 251° |
| 2026-05-07 18:57 | 37.63268 | -2.91817 | 34442 ft | 380 kts | 251° |
| 2026-05-07 18:58 | 37.62244 | -2.94893 | 34199 ft | 381 kts | 251° |
| 2026-05-07 18:58 | 37.61217 | -2.97969 | 33947 ft | 381 kts | 251° |
| 2026-05-07 18:58 | 37.60184 | -3.01051 | 33685 ft | 382 kts | 251° |
| 2026-05-07 18:58 | 37.59146 | -3.04142 | 33413 ft | 384 kts | 251° |
| 2026-05-07 18:59 | 37.58105 | -3.07241 | 33142 ft | 384 kts | 251° |
| 2026-05-07 18:59 | 37.57062 | -3.10344 | 32874 ft | 384 kts | 251° |
| 2026-05-07 18:59 | 37.56021 | -3.13441 | 32609 ft | 384 kts | 251° |
| 2026-05-07 18:59 | 37.54982 | -3.16537 | 32344 ft | 383 kts | 251° |
| 2026-05-07 19:00 | 37.53950 | -3.19619 | 32039 ft | 379 kts | 250° |
| 2026-05-07 19:00 | 37.52930 | -3.22652 | 31588 ft | 374 kts | 250° |
| 2026-05-07 19:00 | 37.51933 | -3.25606 | 31133 ft | 369 kts | 250° |
| 2026-05-07 19:00 | 37.50934 | -3.28569 | 30664 ft | 366 kts | 250° |
| 2026-05-07 19:01 | 37.49942 | -3.31507 | 30220 ft | 363 kts | 250° |
| 2026-05-07 19:01 | 37.48957 | -3.34418 | 29727 ft | 360 kts | 250° |
| 2026-05-07 19:01 | 37.47980 | -3.37307 | 29261 ft | 356 kts | 250° |
| 2026-05-07 19:01 | 37.47013 | -3.40163 | 28819 ft | 353 kts | 250° |
| 2026-05-07 19:02 | 37.46052 | -3.42997 | 28377 ft | 351 kts | 250° |
| 2026-05-07 19:02 | 37.45094 | -3.45813 | 27941 ft | 349 kts | 250° |
| 2026-05-07 19:02 | 37.44144 | -3.48615 | 27506 ft | 348 kts | 250° |
| 2026-05-07 19:02 | 37.43196 | -3.51407 | 27077 ft | 346 kts | 250° |
| 2026-05-07 19:03 | 37.42251 | -3.54185 | 26649 ft | 345 kts | 249° |
| 2026-05-07 19:03 | 37.41307 | -3.56957 | 26232 ft | 344 kts | 249° |
| 2026-05-07 19:03 | 37.40367 | -3.59714 | 25820 ft | 342 kts | 249° |
| 2026-05-07 19:03 | 37.39407 | -3.62447 | 25414 ft | 342 kts | 245° |
| 2026-05-07 19:04 | 37.38137 | -3.64984 | 24981 ft | 344 kts | 238° |
| 2026-05-07 19:04 | 37.36728 | -3.67412 | 24535 ft | 344 kts | 237° |
| 2026-05-07 19:04 | 37.35795 | -3.69019 | 24238 ft | 344 kts | 237° |
| 2026-05-07 19:04 | 37.34382 | -3.71456 | 23793 ft | 345 kts | 237° |
| 2026-05-07 19:05 | 37.32972 | -3.73892 | 23322 ft | 345 kts | 237° |
| 2026-05-07 19:05 | 37.31553 | -3.76351 | 22379 ft | 349 kts | 237° |
| 2026-05-07 19:05 | 37.30130 | -3.78815 | 21412 ft | 347 kts | 237° |
| 2026-05-07 19:05 | 37.28715 | -3.81261 | 20493 ft | 345 kts | 237° |
| 2026-05-07 19:06 | 37.27314 | -3.83675 | 19799 ft | 337 kts | 237° |
| 2026-05-07 19:06 | 37.24660 | -3.88233 | 18939 ft | 311 kts | 237° |
| 2026-05-07 19:06 | 37.23394 | -3.90417 | 18531 ft | 310 kts | 237° |
| 2026-05-07 19:07 | 37.22127 | -3.92607 | 18104 ft | 310 kts | 237° |
| 2026-05-07 19:07 | 37.20877 | -3.94760 | 17653 ft | 309 kts | 237° |
| 2026-05-07 19:07 | 37.19612 | -3.96932 | 17258 ft | 308 kts | 236° |
| 2026-05-07 19:07 | 37.18342 | -3.99109 | 16851 ft | 309 kts | 236° |
| 2026-05-07 19:08 | 37.17078 | -4.01278 | 16429 ft | 308 kts | 236° |
| 2026-05-07 19:08 | 37.15814 | -4.03442 | 16012 ft | 307 kts | 236° |
| 2026-05-07 19:08 | 37.14552 | -4.05599 | 15595 ft | 307 kts | 236° |
| 2026-05-07 19:08 | 37.13291 | -4.07752 | 15177 ft | 307 kts | 235° |
| 2026-05-07 19:09 | 37.12031 | -4.09905 | 14757 ft | 306 kts | 235° |
| 2026-05-07 19:09 | 37.10778 | -4.12051 | 14342 ft | 306 kts | 235° |
| 2026-05-07 19:09 | 37.09516 | -4.14216 | 13916 ft | 307 kts | 235° |
| 2026-05-07 19:09 | 37.08257 | -4.16376 | 13494 ft | 307 kts | 234° |
| 2026-05-07 19:10 | 37.07000 | -4.18529 | 13070 ft | 306 kts | 234° |
| 2026-05-07 19:10 | 37.05745 | -4.20675 | 12666 ft | 305 kts | 234° |
| 2026-05-07 19:10 | 37.04493 | -4.22810 | 12245 ft | 305 kts | 234° |
| 2026-05-07 19:10 | 37.03237 | -4.24947 | 11833 ft | 305 kts | 234° |
| 2026-05-07 19:11 | 37.02000 | -4.27047 | 11429 ft | 303 kts | 234° |
| 2026-05-07 19:11 | 37.00748 | -4.29174 | 10998 ft | 304 kts | 234° |
| 2026-05-07 19:11 | 36.99494 | -4.31302 | 10584 ft | 303 kts | 234° |
| 2026-05-07 19:11 | 36.98245 | -4.33424 | 10265 ft | 301 kts | 234° |
| 2026-05-07 19:12 | 36.97006 | -4.35526 | 10089 ft | 292 kts | 234° |
| 2026-05-07 19:12 | 36.95814 | -4.37548 | 9989 ft | 287 kts | 234° |
| 2026-05-07 19:12 | 36.94628 | -4.39560 | 9890 ft | 289 kts | 234° |
| 2026-05-07 19:12 | 36.93452 | -4.41616 | 9197 ft | 291 kts | 235° |
| 2026-05-07 19:13 | 36.92307 | -4.43696 | 8853 ft | 289 kts | 236° |
| 2026-05-07 19:13 | 36.91193 | -4.45752 | 8350 ft | 283 kts | 236° |
| 2026-05-07 19:13 | 36.90095 | -4.47786 | 7711 ft | 281 kts | 236° |
| 2026-05-07 19:13 | 36.89007 | -4.49796 | 7107 ft | 278 kts | 236° |
| 2026-05-07 19:14 | 36.87926 | -4.51785 | 6496 ft | 275 kts | 236° |
| 2026-05-07 19:14 | 36.86854 | -4.53749 | 5919 ft | 272 kts | 236° |
| 2026-05-07 19:14 | 36.85793 | -4.55692 | 5308 ft | 269 kts | 236° |
| 2026-05-07 19:14 | 36.84741 | -4.57613 | 4682 ft | 267 kts | 236° |
| 2026-05-07 19:15 | 36.83711 | -4.59490 | 4333 ft | 254 kts | 236° |
| 2026-05-07 19:15 | 36.82748 | -4.61243 | 4182 ft | 236 kts | 235° |
| 2026-05-07 19:15 | 36.81856 | -4.62863 | 4074 ft | 217 kts | 236° |
| 2026-05-07 19:15 | 36.81046 | -4.64336 | 3974 ft | 200 kts | 236° |
| 2026-05-07 19:16 | 36.80278 | -4.65731 | 3895 ft | 191 kts | 235° |
| 2026-05-07 19:16 | 36.79527 | -4.67073 | 3820 ft | 186 kts | 231° |
| 2026-05-07 19:16 | 36.78491 | -4.68000 | 3697 ft | 186 kts | 200° |
| 2026-05-07 19:16 | 36.77194 | -4.68108 | 3278 ft | 188 kts | 167° |
| 2026-05-07 19:17 | 36.76094 | -4.67284 | 2989 ft | 186 kts | 132° |
| 2026-05-07 19:17 | 36.75453 | -4.65944 | 2756 ft | 180 kts | 120° |
| 2026-05-07 19:17 | 36.74881 | -4.64567 | 2521 ft | 178 kts | 119° |
| 2026-05-07 19:17 | 36.74314 | -4.63206 | 2281 ft | 176 kts | 119° |
| 2026-05-07 19:18 | 36.73754 | -4.61867 | 2056 ft | 172 kts | 118° |
| 2026-05-07 19:18 | 36.73222 | -4.60596 | 1825 ft | 159 kts | 118° |
| 2026-05-07 19:18 | 36.72727 | -4.59414 | 1627 ft | 150 kts | 118° |
| 2026-05-07 19:18 | 36.72251 | -4.58278 | 1431 ft | 146 kts | 117° |
| 2026-05-07 19:19 | 36.71783 | -4.57162 | 1236 ft | 146 kts | 117° |
| 2026-05-07 19:19 | 36.71313 | -4.56045 | 1038 ft | 144 kts | 116° |
| 2026-05-07 19:19 | 36.70845 | -4.54935 | 826 ft | 144 kts | 116° |
| 2026-05-07 19:19 | 36.70384 | -4.53830 | 646 ft | 143 kts | 116° |
| 2026-05-07 19:20 | 36.69922 | -4.52731 | 459 ft | 143 kts | 117° |
| 2026-05-07 19:20 | 36.69463 | -4.51641 | 249 ft | 141 kts | 116° |
| 2026-05-07 19:20 | 36.69012 | -4.50559 | 64 ft | 140 kts | 117° |
| 2026-05-07 19:20 | 36.68612 | -4.49607 | 47 ft | 102 kts | 117° |
| 2026-05-07 19:21 | 36.68362 | -4.49012 | 45 ft | 55 kts | 117° |
| 2026-05-07 19:21 | 36.68240 | -4.48728 | 41 ft | 30 kts | 121° |
| 2026-05-07 19:21 | 36.68097 | -4.48540 | 39 ft | 29 kts | 146° |
| 2026-05-07 19:21 | 36.67999 | -4.48489 | 39 ft | 13 kts | 196° |
| 2026-05-07 19:22 | 36.67999 | -4.48592 | 39 ft | 16 kts | 297° |
| 2026-05-07 19:22 | 36.68056 | -4.48729 | 40 ft | 19 kts | 296° |
| 2026-05-07 19:22 | 36.68116 | -4.48891 | 40 ft | 22 kts | 295° |
| 2026-05-07 19:22 | 36.68195 | -4.49055 | 40 ft | 23 kts | 298° |
| 2026-05-07 19:23 | 36.68265 | -4.49225 | 40 ft | 15 kts | 297° |
| 2026-05-07 19:23 | 36.68254 | -4.49348 | 40 ft | 17 kts | 224° |
| 2026-05-07 19:23 | 36.68160 | -4.49452 | 42 ft | 19 kts | 221° |
| 2026-05-07 19:23 | 36.68053 | -4.49570 | 42 ft | 22 kts | 221° |
| 2026-05-07 19:24 | 36.67934 | -4.49702 | 42 ft | 22 kts | 221° |
| 2026-05-07 19:24 | 36.67846 | -4.49798 | 42 ft | 14 kts | 219° |
| 2026-05-07 19:24 | 36.67779 | -4.49771 | 42 ft | 12 kts | 134° |
| 2026-05-07 19:24 | 36.67724 | -4.49693 | 42 ft | 8 kts | 131° |
| 2026-05-07 19:25 | 36.67730 | -4.49651 | 40 ft | 6 kts | 39° |
| 2026-05-07 19:25 | 36.67762 | -4.49616 | 42 ft | 2 kts | 41° |
| 2026-05-07 19:25 | 36.67763 | -4.49615 | 42 ft | 0 kts | 41° |